Time;durP1;ratioP1;P1;durP2;ratioP2;P2;SDS_P1;SDS_P2;PMS_P1;PMS_P2;Temp;Humidity;BMP_temperature;BMP_pressure;BME280_temperature;BME280_humidity;BME280_pressure;Samples;Min_cycle;Max_cycle;Signal;HPM_P1;HPM_P2
2022/07/05 00:00:40;;;;;;;2.10;1.90;;;18.00;99.90;;;;;;4995321;28;20478;-74
2022/07/05 00:03:06;;;;;;;3.13;2.30;;;18.10;99.90;;;;;;4995205;28;20276;-74
2022/07/05 00:05:32;;;;;;;1.70;1.50;;;17.90;99.90;;;;;;5013021;28;20477;-74
2022/07/05 00:07:57;;;;;;;8.40;2.47;;;17.70;99.90;;;;;;4995393;28;20448;-74
2022/07/05 00:10:23;;;;;;;1.60;1.50;;;17.50;99.90;;;;;;4995282;28;20275;-75
2022/07/05 00:12:49;;;;;;;3.33;2.40;;;17.40;99.90;;;;;;5012951;28;20184;-75
2022/07/05 00:15:14;;;;;;;1.97;1.77;;;17.30;99.90;;;;;;5012777;28;20285;-74
2022/07/05 00:17:40;;;;;;;4.83;2.20;;;17.40;99.90;;;;;;4978771;28;20233;-74
2022/07/05 00:20:07;;;;;;;2.67;1.60;;;17.50;99.90;;;;;;4995064;28;20679;-76
2022/07/05 00:22:32;;;;;;;4.00;2.47;;;17.50;99.90;;;;;;5012790;28;20264;-74
2022/07/05 00:24:58;;;;;;;2.10;1.73;;;17.60;99.90;;;;;;5012765;28;20849;-74
2022/07/05 00:27:23;;;;;;;3.50;2.47;;;17.40;99.90;;;;;;4994645;28;20182;-75
2022/07/05 00:29:49;;;;;;;6.07;1.80;;;17.30;99.90;;;;;;5012644;28;20207;-71
2022/07/05 00:32:15;;;;;;;2.30;2.10;;;17.30;99.90;;;;;;5012361;28;20186;-73
2022/07/05 00:34:40;;;;;;;3.60;2.73;;;17.10;99.90;;;;;;4994584;28;20204;-73
2022/07/05 00:37:06;;;;;;;2.60;2.20;;;17.10;99.90;;;;;;4994724;28;20184;-74
2022/07/05 00:39:32;;;;;;;2.57;2.37;;;17.10;99.90;;;;;;5011664;28;20223;-73
2022/07/05 00:41:57;;;;;;;2.70;2.50;;;17.20;99.90;;;;;;4993687;28;20237;-74
2022/07/05 00:44:43;;;;;;;3.10;2.40;;;17.30;99.90;;;;;;4994382;28;20201;-74
2022/07/05 00:47:11;;;;;;;9.57;2.40;;;17.30;99.90;;;;;;5011696;28;20206;-74
2022/07/05 00:49:38;;;;;;;3.33;2.30;;;17.30;99.90;;;;;;5012128;28;20493;-74
2022/07/05 00:52:05;;;;;;;3.87;2.50;;;17.30;99.90;;;;;;4993759;28;20427;-74
2022/07/05 00:54:34;;;;;;;3.30;2.60;;;17.30;99.90;;;;;;5012020;28;20520;-74
2022/07/05 00:56:59;;;;;;;2.63;2.43;;;17.40;99.90;;;;;;5011871;28;20426;-74
2022/07/05 00:59:29;;;;;;;3.47;2.73;;;17.50;99.90;;;;;;4993594;28;20528;-74
2022/07/05 01:01:55;;;;;;;2.70;2.23;;;17.50;99.90;;;;;;5011252;28;20180;-74
2022/07/05 01:04:21;;;;;;;4.60;2.53;;;17.30;99.90;;;;;;5011005;28;20434;-74
2022/07/05 01:06:48;;;;;;;2.57;1.97;;;17.30;99.90;;;;;;5011110;28;20195;-74
2022/07/05 01:09:16;;;;;;;4.40;2.70;;;17.20;99.90;;;;;;5011080;28;20184;-74
2022/07/05 01:11:45;;;;;;;2.50;2.30;;;17.10;99.90;;;;;;5011720;28;20552;-74
2022/07/05 01:14:17;;;;;;;3.60;2.27;;;17.20;99.90;;;;;;5011704;28;21024;-74
2022/07/05 01:16:43;;;;;;;2.90;2.63;;;17.20;99.90;;;;;;5011098;28;20477;-77
2022/07/05 01:19:14;;;;;;;2.83;2.40;;;17.20;99.90;;;;;;4977171;28;20467;-77
2022/07/05 01:21:42;;;;;;;3.30;2.50;;;17.30;99.90;;;;;;4993992;28;20427;-77
2022/07/05 01:24:09;;;;;;;2.90;2.60;;;17.30;99.90;;;;;;4993536;28;20430;-74
2022/07/05 01:26:38;;;;;;;2.83;2.27;;;17.20;99.90;;;;;;5010898;28;20430;-74
2022/07/05 01:29:04;;;;;;;4.70;2.20;;;17.20;99.90;;;;;;4993029;28;20420;-74
2022/07/05 01:31:30;;;;;;;2.90;2.70;;;17.10;99.90;;;;;;4977306;28;20527;-74
2022/07/05 01:33:55;;;;;;;6.43;2.90;;;17.00;99.90;;;;;;4993836;28;20529;-76
2022/07/05 01:36:22;;;;;;;3.83;2.90;;;17.00;99.90;;;;;;5011290;28;20456;-75
2022/07/05 01:38:48;;;;;;;2.73;2.53;;;16.90;99.90;;;;;;4993420;28;20256;-76
2022/07/05 01:41:14;;;;;;;3.70;3.13;;;16.90;99.90;;;;;;5011298;28;20495;-76
2022/07/05 01:43:40;;;;;;;3.20;3.00;;;16.80;99.90;;;;;;4993568;28;20522;-75
2022/07/05 01:46:08;;;;;;;2.73;2.53;;;16.80;99.90;;;;;;4993365;28;20648;-76
2022/07/05 01:48:35;;;;;;;2.60;2.20;;;16.70;99.90;;;;;;5011082;28;20182;-76
2022/07/05 01:51:05;;;;;;;3.63;3.00;;;16.80;99.90;;;;;;5010795;28;20513;-75
2022/07/05 01:53:32;;;;;;;4.83;3.07;;;16.70;99.90;;;;;;5010769;28;20418;-75
2022/07/05 01:56:00;;;;;;;2.90;2.57;;;16.80;99.90;;;;;;4977123;28;20451;-75
2022/07/05 01:58:27;;;;;;;4.37;2.83;;;16.70;99.90;;;;;;5010891;28;20454;-75
2022/07/05 02:00:54;;;;;;;5.77;3.00;;;16.50;99.90;;;;;;5010736;28;20472;-75
2022/07/05 02:03:20;;;;;;;3.63;2.53;;;16.50;99.90;;;;;;5010775;28;20422;-75
2022/07/05 02:05:47;;;;;;;2.90;2.40;;;16.40;99.90;;;;;;5010659;28;20439;-75
2022/07/05 02:08:14;;;;;;;4.27;2.57;;;16.30;99.90;;;;;;5010753;28;20414;-75
2022/07/05 02:10:40;;;;;;;4.77;3.30;;;16.30;99.90;;;;;;4992792;28;20443;-75
2022/07/05 02:13:06;;;;;;;3.77;2.70;;;16.40;99.90;;;;;;4993004;28;20422;-75
2022/07/05 02:15:37;;;;;;;3.27;2.47;;;16.40;99.90;;;;;;5010675;28;20457;-75
2022/07/05 02:18:04;;;;;;;3.03;2.83;;;16.50;99.90;;;;;;4992822;28;20441;-75
2022/07/05 02:20:30;;;;;;;6.00;3.00;;;16.50;99.90;;;;;;4992306;28;20509;-75
2022/07/05 02:22:57;;;;;;;3.13;2.60;;;16.60;99.90;;;;;;4992622;28;20423;-75
2022/07/05 02:25:23;;;;;;;4.70;2.53;;;16.60;99.90;;;;;;4992354;28;20968;-75
2022/07/05 02:27:50;;;;;;;4.93;2.90;;;16.70;99.90;;;;;;5009902;28;20976;-75
2022/07/05 02:30:16;;;;;;;2.60;2.40;;;16.70;99.90;;;;;;5009876;28;20493;-75
2022/07/05 02:32:42;;;;;;;3.17;2.87;;;16.80;99.90;;;;;;5009972;28;20516;-75
2022/07/05 02:35:09;;;;;;;2.60;2.40;;;16.80;99.90;;;;;;4992206;28;20450;-75
2022/07/05 02:37:36;;;;;;;4.00;2.80;;;16.80;99.90;;;;;;5009917;28;20537;-75
2022/07/05 02:40:02;;;;;;;2.30;2.10;;;17.00;99.90;;;;;;4991843;28;20486;-75
2022/07/05 02:42:28;;;;;;;2.80;2.60;;;17.00;99.90;;;;;;5009887;28;20434;-75
2022/07/05 02:44:53;;;;;;;3.30;2.90;;;17.00;99.90;;;;;;4975714;28;20451;-75
2022/07/05 02:47:19;;;;;;;2.60;2.40;;;17.00;99.90;;;;;;5010764;28;20188;-75
2022/07/05 02:49:45;;;;;;;3.20;2.90;;;17.00;99.90;;;;;;5010499;28;20232;-75
2022/07/05 02:52:10;;;;;;;3.73;3.17;;;17.00;99.90;;;;;;5011639;28;20191;-76
2022/07/05 02:54:36;;;;;;;4.03;2.47;;;16.90;99.90;;;;;;4992194;28;20217;-75
2022/07/05 02:57:02;;;;;;;3.30;3.03;;;16.90;99.90;;;;;;5009621;28;20257;-75
2022/07/05 02:59:30;;;;;;;3.50;2.90;;;16.70;99.90;;;;;;5009530;28;20556;-75
2022/07/05 03:01:56;;;;;;;4.13;2.93;;;16.70;99.90;;;;;;4991729;28;21254;-75
2022/07/05 03:04:21;;;;;;;2.70;2.50;;;16.60;99.90;;;;;;5008724;28;20423;-75
2022/07/05 03:06:47;;;;;;;2.70;2.50;;;16.60;99.90;;;;;;5009440;28;20195;-75
2022/07/05 03:09:13;;;;;;;3.80;3.10;;;16.50;99.90;;;;;;4991911;28;20191;-76
2022/07/05 03:11:38;;;;;;;4.70;2.80;;;16.50;99.90;;;;;;4992138;28;20540;-76
2022/07/05 03:14:04;;;;;;;3.27;2.97;;;16.40;99.90;;;;;;5010255;28;20660;-75
2022/07/05 03:16:29;;;;;;;6.10;2.87;;;16.40;99.90;;;;;;4992888;28;20212;-75
2022/07/05 03:18:55;;;;;;;4.30;3.10;;;16.40;99.90;;;;;;5010230;28;20793;-75
2022/07/05 03:21:21;;;;;;;4.90;3.10;;;16.30;99.90;;;;;;4992808;28;20190;-75
2022/07/05 03:23:47;;;;;;;3.60;2.77;;;16.30;99.90;;;;;;4992668;28;20182;-76
2022/07/05 03:26:13;;;;;;;7.07;3.10;;;16.30;99.90;;;;;;5010362;28;20532;-75
2022/07/05 03:28:39;;;;;;;3.10;2.73;;;16.30;99.90;;;;;;5010478;28;20194;-75
2022/07/05 03:31:05;;;;;;;8.40;3.20;;;16.20;99.90;;;;;;5010141;28;20183;-75
2022/07/05 03:33:30;;;;;;;7.33;3.17;;;16.20;99.90;;;;;;5009539;28;20947;-76
2022/07/05 03:35:57;;;;;;;5.40;4.07;;;16.20;99.90;;;;;;5009568;28;20204;-75
2022/07/05 03:38:22;;;;;;;4.60;3.00;;;16.10;99.90;;;;;;5008987;28;20481;-75
2022/07/05 03:40:48;;;;;;;3.83;3.40;;;16.10;99.90;;;;;;5009069;28;20506;-75
2022/07/05 03:43:14;;;;;;;4.70;3.20;;;16.10;99.90;;;;;;5009213;28;20240;-76
2022/07/05 03:45:39;;;;;;;9.13;2.93;;;16.00;99.90;;;;;;5009050;28;20218;-75
2022/07/05 03:48:05;;;;;;;3.20;2.90;;;16.00;99.90;;;;;;4991825;28;20177;-76
2022/07/05 03:50:31;;;;;;;3.37;2.80;;;16.00;99.90;;;;;;4991805;28;20275;-75
2022/07/05 03:52:56;;;;;;;3.40;3.10;;;16.00;99.90;;;;;;4991922;28;20281;-75
2022/07/05 03:55:22;;;;;;;3.20;2.93;;;16.00;99.90;;;;;;4991963;28;20855;-75
2022/07/05 03:57:48;;;;;;;4.57;3.07;;;16.00;99.90;;;;;;4991798;28;20186;-75
2022/07/05 04:00:14;;;;;;;4.87;3.60;;;15.90;99.90;;;;;;5009003;28;20219;-75
2022/07/05 04:02:40;;;;;;;3.37;2.90;;;16.10;99.90;;;;;;5009328;28;20655;-75
2022/07/05 04:05:06;;;;;;;3.90;2.83;;;16.10;99.90;;;;;;5009446;28;20492;-76
2022/07/05 04:07:32;;;;;;;2.87;2.63;;;16.10;99.90;;;;;;5009451;28;20180;-75
2022/07/05 04:09:58;;;;;;;3.90;3.10;;;16.10;99.90;;;;;;5009683;28;20418;-75
2022/07/05 04:12:24;;;;;;;2.90;2.70;;;16.10;99.90;;;;;;4975338;28;20857;-75
2022/07/05 04:14:50;;;;;;;6.13;3.13;;;16.20;99.90;;;;;;4993076;28;20222;-76
2022/07/05 04:17:15;;;;;;;3.00;2.80;;;16.20;99.90;;;;;;4995260;28;20684;-75
2022/07/05 04:19:41;;;;;;;3.33;3.03;;;16.20;99.90;;;;;;5012855;28;20300;-75
2022/07/05 04:22:06;;;;;;;4.50;2.60;;;16.00;99.90;;;;;;5012923;28;20179;-75
2022/07/05 04:25:16;;;;;;;3.40;2.30;;;16.00;99.90;;;;;;4978939;28;20237;-76
2022/07/05 04:27:18;;;;;;;10.97;2.20;;;16.00;99.90;;;;;;5012228;28;20192;-74
2022/07/05 04:29:43;;;;;;;5.97;2.50;;;16.20;99.90;;;;;;4994614;28;20421;-74
2022/07/05 04:32:09;;;;;;;2.63;2.30;;;16.30;99.90;;;;;;5012232;28;20182;-74
2022/07/05 04:34:35;;;;;;;3.20;2.30;;;16.50;99.90;;;;;;5012013;28;20184;-74
2022/07/05 04:37:00;;;;;;;7.80;2.50;;;16.60;99.90;;;;;;5011899;28;20199;-74
2022/07/05 04:39:26;;;;;;;3.93;2.50;;;16.70;99.90;;;;;;5011562;28;20226;-74
2022/07/05 04:41:51;;;;;;;3.13;2.27;;;16.70;99.90;;;;;;4993715;28;20199;-75
2022/07/05 04:44:17;;;;;;;2.70;2.20;;;16.80;99.90;;;;;;4993718;28;20949;-74
2022/07/05 04:46:42;;;;;;;5.43;3.07;;;16.90;99.90;;;;;;5011264;28;20203;-74
2022/07/05 04:49:08;;;;;;;2.60;2.40;;;17.10;99.90;;;;;;4994461;28;20187;-75
2022/07/05 04:51:34;;;;;;;2.70;2.50;;;17.10;99.90;;;;;;4993216;28;20189;-75
2022/07/05 04:53:59;;;;;;;2.40;2.20;;;17.30;99.90;;;;;;4993129;28;20258;-76
2022/07/05 04:56:25;;;;;;;4.57;2.67;;;17.30;99.90;;;;;;5010795;28;20211;-76
2022/07/05 04:58:53;;;;;;;4.43;2.47;;;17.50;99.90;;;;;;4992788;28;20185;-75
2022/07/05 05:01:19;;;;;;;4.27;2.60;;;17.60;99.90;;;;;;5010619;28;20658;-75
2022/07/05 05:03:44;;;;;;;6.60;3.00;;;17.60;99.90;;;;;;4976501;28;20435;-76
2022/07/05 05:06:10;;;;;;;5.40;2.50;;;17.70;99.90;;;;;;5010382;28;20451;-76
2022/07/05 05:08:36;;;;;;;6.13;2.40;;;17.80;99.90;;;;;;4992670;28;20746;-76
2022/07/05 05:11:01;;;;;;;3.43;2.93;;;18.00;99.90;;;;;;4976349;28;20219;-76
2022/07/05 05:13:27;;;;;;;4.40;2.00;;;18.10;99.90;;;;;;5010269;28;20296;-75
2022/07/05 05:15:53;;;;;;;2.27;2.07;;;18.20;99.90;;;;;;4992468;28;20208;-76
2022/07/05 05:18:21;;;;;;;2.97;2.23;;;18.30;99.90;;;;;;4976054;28;20658;-76
2022/07/05 05:20:46;;;;;;;2.23;1.97;;;18.40;99.90;;;;;;5009773;28;20945;-75
2022/07/05 05:23:12;;;;;;;4.10;2.40;;;18.60;99.90;;;;;;5009990;28;20437;-75
2022/07/05 05:25:37;;;;;;;5.37;2.27;;;18.70;99.90;;;;;;5009973;28;20212;-75
2022/07/05 05:28:04;;;;;;;3.03;2.70;;;18.70;99.90;;;;;;5009477;28;20925;-75
2022/07/05 05:30:29;;;;;;;6.23;2.80;;;18.80;99.90;;;;;;4992302;28;20195;-75
2022/07/05 05:32:55;;;;;;;3.27;2.70;;;18.80;99.90;;;;;;5009850;28;20793;-75
2022/07/05 05:35:21;;;;;;;4.57;2.60;;;18.90;99.90;;;;;;5009574;28;20336;-75
2022/07/05 05:37:55;;;;;;;3.73;2.43;;;19.10;99.90;;;;;;4991982;28;20196;-75
2022/07/05 05:40:22;;;;;;;6.37;2.60;;;19.20;99.90;;;;;;5009561;28;20480;-75
2022/07/05 05:42:48;;;;;;;3.67;2.07;;;19.30;99.90;;;;;;4991928;28;20459;-75
2022/07/05 05:45:14;;;;;;;4.57;2.63;;;19.40;99.90;;;;;;5009680;28;20506;-75
2022/07/05 05:47:57;;;;;;;5.93;3.10;;;19.40;99.90;;;;;;5009776;28;20686;-75
2022/07/05 05:50:24;;;;;;;4.80;2.10;;;19.40;99.90;;;;;;5009861;28;20415;-75
2022/07/05 05:52:50;;;;;;;6.97;1.90;;;19.50;99.90;;;;;;4991752;28;20490;-75
2022/07/05 05:55:17;;;;;;;4.10;1.90;;;19.70;99.90;;;;;;4991630;28;20496;-75
2022/07/05 05:57:43;;;;;;;7.90;1.90;;;19.70;99.90;;;;;;4975425;28;20480;-75
2022/07/05 06:00:10;;;;;;;2.17;1.70;;;19.80;99.90;;;;;;5009606;28;20466;-75
2022/07/05 06:02:35;;;;;;;4.40;1.73;;;19.80;99.90;;;;;;4991914;28;20270;-75
2022/07/05 06:05:01;;;;;;;3.90;1.43;;;19.80;99.90;;;;;;5010109;28;20553;-75
2022/07/05 06:07:27;;;;;;;3.70;1.60;;;19.90;99.90;;;;;;4992288;28;20185;-75
2022/07/05 06:09:52;;;;;;;4.20;1.80;;;20.00;99.90;;;;;;5010452;28;20189;-75
2022/07/05 06:12:18;;;;;;;4.37;1.93;;;20.10;99.90;;;;;;5010136;28;20190;-75
2022/07/05 06:14:44;;;;;;;11.03;2.20;;;20.10;99.90;;;;;;4992244;28;20277;-75
2022/07/05 06:17:09;;;;;;;8.13;2.10;;;20.10;99.90;;;;;;5009760;28;20189;-76
2022/07/05 06:19:35;;;;;;;4.43;1.90;;;20.20;99.90;;;;;;4975673;28;20693;-75
2022/07/05 06:22:01;;;;;;;2.43;1.77;;;20.20;99.90;;;;;;5009700;28;20181;-75
2022/07/05 06:24:26;;;;;;;3.30;2.10;;;20.30;99.90;;;;;;5009307;28;20650;-75
2022/07/05 06:26:52;;;;;;;4.83;1.47;;;20.40;99.90;;;;;;4992037;28;20235;-76
2022/07/05 06:29:17;;;;;;;6.73;1.70;;;20.40;99.90;;;;;;5009137;28;20212;-75
2022/07/05 06:31:43;;;;;;;5.17;1.50;;;20.60;99.90;;;;;;4991386;28;20226;-75
2022/07/05 06:34:09;;;;;;;5.47;1.87;;;20.60;99.90;;;;;;5009281;28;20234;-75
2022/07/05 06:36:34;;;;;;;1.73;1.63;;;20.60;99.90;;;;;;4991209;28;20209;-75
2022/07/05 06:39:00;;;;;;;4.27;2.00;;;20.70;99.90;;;;;;5008624;28;20203;-75
2022/07/05 06:41:26;;;;;;;8.53;1.73;;;20.80;99.90;;;;;;4990893;28;20185;-75
2022/07/05 06:43:52;;;;;;;3.73;1.90;;;20.50;99.90;;;;;;5008736;28;20987;-75
2022/07/05 06:46:17;;;;;;;2.80;1.40;;;20.70;99.90;;;;;;4991177;28;20205;-75
2022/07/05 06:48:43;;;;;;;2.03;1.60;;;20.80;99.90;;;;;;5009328;28;20286;-75
2022/07/05 06:51:09;;;;;;;2.60;1.50;;;20.80;99.90;;;;;;5009306;28;20651;-74
2022/07/05 06:53:34;;;;;;;3.63;1.50;;;20.90;99.90;;;;;;4991095;28;20965;-75
2022/07/05 06:56:00;;;;;;;2.27;1.50;;;20.90;99.90;;;;;;5008881;28;20732;-75
2022/07/05 06:58:25;;;;;;;3.30;1.40;;;20.80;99.90;;;;;;5008657;28;20185;-75
2022/07/05 07:00:51;;;;;;;3.07;1.70;;;20.90;99.90;;;;;;4990849;28;20215;-75
2022/07/05 07:03:17;;;;;;;1.60;1.50;;;21.10;99.90;;;;;;4990658;28;20189;-75
2022/07/05 07:05:43;;;;;;;3.50;1.47;;;21.20;99.90;;;;;;4990692;28;20228;-75
2022/07/05 07:10:53;;;;;;;3.67;1.77;;;21.50;99.90;;;;;;4993915;28;20191;-75
2022/07/05 07:13:19;;;;;;;1.67;1.23;;;21.40;99.90;;;;;;4974371;28;20428;-75
2022/07/05 07:15:47;;;;;;;3.53;1.97;;;21.60;99.90;;;;;;5008405;28;20205;-75
2022/07/05 07:18:13;;;;;;;1.63;1.37;;;21.50;99.90;;;;;;4991017;28;20507;-75
2022/07/05 07:20:39;;;;;;;1.80;1.47;;;21.60;99.90;;;;;;4990483;28;20467;-75
2022/07/05 07:23:05;;;;;;;1.70;1.60;;;21.60;99.90;;;;;;5008463;28;20494;-75
2022/07/05 07:25:30;;;;;;;2.30;1.70;;;21.60;99.90;;;;;;4990589;28;20241;-75
2022/07/05 07:27:56;;;;;;;1.73;1.20;;;21.70;99.90;;;;;;5008213;28;20209;-75
2022/07/05 07:30:27;;;;;;;1.40;1.30;;;21.70;99.90;;;;;;4990782;28;20228;-75
2022/07/05 07:32:53;;;;;;;2.60;1.80;;;21.80;99.90;;;;;;5009117;28;20427;-75
2022/07/05 07:35:19;;;;;;;2.73;1.67;;;21.70;99.90;;;;;;5008463;28;20526;-75
2022/07/05 07:37:46;;;;;;;9.97;1.77;;;21.70;99.90;;;;;;5008412;28;20528;-75
2022/07/05 07:40:12;;;;;;;2.10;1.60;;;21.70;99.90;;;;;;5008327;28;20546;-75
2022/07/05 07:42:38;;;;;;;1.93;1.37;;;21.80;99.90;;;;;;5008366;28;20478;-75
2022/07/05 07:45:05;;;;;;;5.47;1.93;;;21.80;99.90;;;;;;5008331;28;20440;-76
2022/07/05 07:47:32;;;;;;;1.30;1.20;;;21.90;99.90;;;;;;4990770;28;20777;-75
2022/07/05 07:49:58;;;;;;;3.13;1.43;;;22.00;99.90;;;;;;4976129;28;20432;-75
2022/07/05 07:52:23;;;;;;;1.70;1.37;;;22.00;99.90;;;;;;5012279;28;20431;-75
2022/07/05 07:54:52;;;;;;;1.97;1.50;;;22.00;99.90;;;;;;4994584;28;20350;-75
2022/07/05 07:57:18;;;;;;;1.50;1.40;;;22.10;99.90;;;;;;4995045;28;20292;-75
2022/07/05 07:59:44;;;;;;;4.00;1.80;;;22.00;99.90;;;;;;5012086;28;20555;-75
2022/07/05 08:02:10;;;;;;;2.97;1.80;;;22.10;99.90;;;;;;4994327;28;20431;-75
2022/07/05 08:04:36;;;;;;;3.87;2.07;;;22.10;99.90;;;;;;4994704;28;20420;-75
2022/07/05 08:07:03;;;;;;;3.27;1.97;;;22.20;99.90;;;;;;5012430;28;20189;-75
2022/07/05 08:09:29;;;;;;;1.47;1.13;;;22.20;99.90;;;;;;4995088;28;20269;-75
2022/07/05 08:11:54;;;;;;;5.73;2.00;;;22.40;99.90;;;;;;4994356;28;20546;-75
2022/07/05 08:14:20;;;;;;;2.80;1.83;;;22.40;99.90;;;;;;4994513;28;20204;-75
2022/07/05 08:16:48;;;;;;;2.97;1.53;;;22.50;99.90;;;;;;5012191;28;20235;-75
2022/07/05 08:21:57;;;;;;;6.80;2.30;;;22.70;99.90;;;;;;4997419;28;20997;-75
2022/07/05 08:24:23;;;;;;;1.83;1.50;;;22.80;99.90;;;;;;5011907;28;20503;-75
2022/07/05 08:26:49;;;;;;;5.70;2.20;;;22.90;99.90;;;;;;4994185;28;20190;-75
2022/07/05 08:29:14;;;;;;;2.20;1.83;;;23.00;99.90;;;;;;5012036;28;20197;-74
2022/07/05 08:31:45;;;;;;;3.27;1.90;;;23.10;99.90;;;;;;5011746;28;20222;-75
2022/07/05 08:34:12;;;;;;;4.50;2.50;;;23.10;99.90;;;;;;4977611;28;20728;-75
2022/07/05 08:36:40;;;;;;;4.03;1.67;;;23.20;99.80;;;;;;4993873;28;20457;-75
2022/07/05 08:39:06;;;;;;;4.50;1.97;;;23.30;99.90;;;;;;4993796;28;20461;-75
2022/07/05 08:41:35;;;;;;;3.77;1.20;;;23.30;98.20;;;;;;5011655;28;20492;-75
2022/07/05 08:44:02;;;;;;;11.17;1.57;;;23.60;97.70;;;;;;5011615;28;20209;-75
2022/07/05 08:46:30;;;;;;;3.87;1.43;;;23.90;99.20;;;;;;5011318;28;20446;-75
2022/07/05 08:48:59;;;;;;;3.27;1.93;;;24.00;97.90;;;;;;5011444;28;20431;-75
2022/07/05 08:51:27;;;;;;;6.63;1.70;;;24.10;98.00;;;;;;4993633;28;20991;-75
2022/07/05 08:53:55;;;;;;;2.17;1.47;;;24.30;97.80;;;;;;4994630;28;20492;-75
2022/07/05 08:56:21;;;;;;;9.27;1.70;;;24.40;97.30;;;;;;5011083;28;20450;-75
2022/07/05 08:58:49;;;;;;;6.10;1.63;;;24.60;97.50;;;;;;4993525;28;20427;-75
2022/07/05 09:01:15;;;;;;;2.50;1.70;;;24.90;97.40;;;;;;5009654;28;20470;-75
2022/07/05 09:03:47;;;;;;;3.97;1.40;;;25.00;96.10;;;;;;5010659;28;20428;-75
2022/07/05 09:06:16;;;;;;;6.60;1.80;;;25.10;94.50;;;;;;4993045;28;20435;-75
2022/07/05 09:08:42;;;;;;;7.37;1.90;;;25.20;95.50;;;;;;5010822;28;20585;-75
2022/07/05 09:11:10;;;;;;;4.23;1.80;;;25.40;94.30;;;;;;5011072;28;20431;-75
2022/07/05 09:13:38;;;;;;;3.10;2.17;;;25.50;94.20;;;;;;5010757;28;20427;-75
2022/07/05 09:16:04;;;;;;;3.23;1.53;;;25.30;92.90;;;;;;4993297;28;20510;-75
2022/07/05 09:18:46;;;;;;;1.33;1.20;;;25.60;94.90;;;;;;5011189;28;20419;-75
2022/07/05 09:21:23;;;;;;;4.00;1.80;;;25.90;94.80;;;;;;5010779;28;21059;-75
2022/07/05 09:24:00;;;;;;;1.83;1.30;;;26.00;94.40;;;;;;5011012;28;20412;-75
2022/07/05 09:26:36;;;;;;;4.20;1.50;;;26.20;93.50;;;;;;5010583;28;20431;-75
2022/07/05 09:29:04;;;;;;;3.33;1.70;;;26.40;92.40;;;;;;4993449;28;20978;-75
2022/07/05 09:31:39;;;;;;;1.90;1.60;;;26.60;91.30;;;;;;5010797;28;20423;-75
2022/07/05 09:34:15;;;;;;;3.73;1.40;;;26.70;90.30;;;;;;5010839;28;20471;-75
2022/07/05 09:36:56;;;;;;;2.10;1.60;;;27.00;91.60;;;;;;5010532;28;20801;-76
2022/07/05 09:39:35;;;;;;;6.03;1.97;;;27.20;90.20;;;;;;4992022;28;20875;-75
2022/07/05 09:42:23;;;;;;;4.50;1.50;;;27.40;91.80;;;;;;5010136;28;20457;-75
2022/07/05 09:44:53;;;;;;;2.90;1.60;;;27.50;90.90;;;;;;5010079;28;20951;-75
2022/07/05 09:47:24;;;;;;;2.93;1.57;;;27.70;88.30;;;;;;5010185;28;20824;-75
2022/07/05 09:50:03;;;;;;;3.77;1.70;;;27.80;87.90;;;;;;4992510;28;20490;-75
2022/07/05 09:52:34;;;;;;;3.67;1.20;;;27.80;85.90;;;;;;5010142;28;20426;-75
2022/07/05 09:55:06;;;;;;;1.50;1.40;;;27.90;84.50;;;;;;5010107;28;20485;-76
2022/07/05 09:57:33;;;;;;;3.07;1.47;;;28.10;83.20;;;;;;5009810;28;20499;-75
2022/07/05 10:00:06;;;;;;;3.33;1.50;;;28.10;85.20;;;;;;4992191;28;20471;-75
2022/07/05 10:03:02;;;;;;;1.67;1.53;;;28.20;83.70;;;;;;5010106;28;20427;-75
2022/07/05 10:05:31;;;;;;;1.93;1.40;;;28.40;82.20;;;;;;5008471;28;20470;-75
2022/07/05 10:07:59;;;;;;;2.60;1.37;;;28.50;81.40;;;;;;4991748;28;20427;-76
2022/07/05 10:10:27;;;;;;;7.90;1.50;;;28.80;77.00;;;;;;5009597;28;20416;-75
2022/07/05 10:12:56;;;;;;;1.30;1.20;;;28.80;80.90;;;;;;5009431;28;20499;-75
2022/07/05 10:15:30;;;;;;;4.87;1.50;;;29.00;80.90;;;;;;4991927;28;20436;-76
2022/07/05 10:17:55;;;;;;;3.60;1.03;;;29.30;76.50;;;;;;5009590;28;20423;-75
2022/07/05 10:20:48;;;;;;;11.50;1.47;;;29.50;75.80;;;;;;5009637;28;20471;-76
2022/07/05 10:23:18;;;;;;;8.23;1.10;;;29.40;76.00;;;;;;5008747;28;20193;-76
2022/07/05 10:25:49;;;;;;;2.27;1.30;;;29.50;71.00;;;;;;5009348;28;20523;-77
2022/07/05 10:28:16;;;;;;;5.40;1.50;;;29.60;70.00;;;;;;5009547;28;20412;-76
2022/07/05 10:30:45;;;;;;;6.20;1.00;;;29.80;67.50;;;;;;4975617;28;21106;-75
2022/07/05 10:33:14;;;;;;;3.90;1.17;;;29.90;65.60;;;;;;4991651;28;20443;-76
2022/07/05 10:35:43;;;;;;;6.10;1.07;;;29.90;69.10;;;;;;5009239;28;21146;-76
2022/07/05 10:38:09;;;;;;;2.33;1.30;;;30.00;68.40;;;;;;4991804;28;20483;-76
2022/07/05 10:40:36;;;;;;;2.27;1.30;;;30.00;65.50;;;;;;5009293;28;20474;-76
2022/07/05 10:43:03;;;;;;;2.80;1.17;;;30.30;64.30;;;;;;5009575;28;20434;-76
2022/07/05 10:45:34;;;;;;;3.03;1.40;;;30.60;66.20;;;;;;5009366;28;20445;-76
2022/07/05 10:48:19;;;;;;;3.10;1.67;;;30.80;63.90;;;;;;5009516;28;20503;-76
2022/07/05 10:50:49;;;;;;;2.60;1.27;;;30.40;63.50;;;;;;5009541;28;20416;-76
2022/07/05 10:53:19;;;;;;;1.00;0.90;;;29.50;62.60;;;;;;4991585;28;20944;-76
2022/07/05 10:56:17;;;;;;;2.23;1.00;;;29.40;62.60;;;;;;5008998;28;20441;-76
2022/07/05 10:58:44;;;;;;;1.30;0.80;;;29.80;62.30;;;;;;5008425;28;20497;-76
2022/07/05 11:01:13;;;;;;;2.80;0.90;;;29.70;59.40;;;;;;5007937;28;20490;-76
2022/07/05 11:04:04;;;;;;;1.23;1.00;;;30.00;60.80;;;;;;5007889;28;21130;-76
2022/07/05 11:06:39;;;;;;;4.10;1.07;;;30.20;62.00;;;;;;5008385;28;21054;-76
2022/07/05 11:09:11;;;;;;;1.63;0.80;;;30.80;61.20;;;;;;5007954;28;20412;-76
2022/07/05 11:11:42;;;;;;;3.40;1.00;;;30.80;59.60;;;;;;5007672;28;20444;-76
2022/07/05 11:14:19;;;;;;;4.97;1.53;;;30.90;59.40;;;;;;5007848;28;21323;-76
2022/07/05 11:16:46;;;;;;;2.70;1.20;;;31.10;58.80;;;;;;4989644;28;20428;-76
2022/07/05 11:19:17;;;;;;;1.57;1.10;;;31.10;59.30;;;;;;5007447;28;20922;-76
2022/07/05 11:22:05;;;;;;;1.87;1.33;;;31.20;58.80;;;;;;5007574;28;20408;-76
2022/07/05 11:24:38;;;;;;;4.10;1.20;;;30.80;58.70;;;;;;4988719;28;20415;-76
2022/07/05 11:27:10;;;;;;;4.27;1.90;;;30.90;58.70;;;;;;4973771;28;20977;-76
2022/07/05 11:29:52;;;;;;;2.40;1.10;;;30.10;57.60;;;;;;5007304;28;20428;-76
2022/07/05 11:32:30;;;;;;;7.80;1.10;;;29.10;59.10;;;;;;4973449;28;20468;-76
2022/07/05 11:35:11;;;;;;;7.93;1.57;;;28.30;61.40;;;;;;4989596;28;20451;-76
2022/07/05 11:37:56;;;;;;;3.77;1.80;;;28.60;64.40;;;;;;5007784;28;20446;-76
2022/07/05 11:40:21;;;;;;;5.23;1.77;;;29.20;60.50;;;;;;5007637;28;20472;-76
2022/07/05 11:42:49;;;;;;;1.53;0.80;;;29.60;60.50;;;;;;4989872;28;20433;-76
2022/07/05 11:45:15;;;;;;;1.53;1.10;;;29.70;60.70;;;;;;5007595;28;20296;-76
2022/07/05 11:47:42;;;;;;;4.57;1.67;;;30.20;59.20;;;;;;4990112;28;20789;-76
2022/07/05 11:50:09;;;;;;;2.30;1.30;;;30.20;57.30;;;;;;5007793;28;20416;-76
2022/07/05 11:52:36;;;;;;;3.17;1.07;;;30.20;59.50;;;;;;4990680;28;20424;-76
2022/07/05 11:55:11;;;;;;;4.27;1.17;;;30.30;57.10;;;;;;5007963;28;20443;-75
2022/07/05 11:57:47;;;;;;;2.17;1.10;;;30.50;58.40;;;;;;5008088;28;20419;-76
2022/07/05 12:00:13;;;;;;;1.83;0.93;;;30.60;57.50;;;;;;5008238;28;20476;-76
2022/07/05 12:02:45;;;;;;;4.23;1.07;;;30.60;56.20;;;;;;4990171;28;20442;-75
2022/07/05 12:05:15;;;;;;;0.90;0.70;;;30.50;54.70;;;;;;5007819;28;20439;-75
2022/07/05 12:07:52;;;;;;;3.30;1.00;;;30.60;56.90;;;;;;5007960;28;20424;-76
2022/07/05 12:13:05;;;;;;;1.57;0.83;;;30.50;55.50;;;;;;5008863;28;20458;-75
2022/07/05 12:15:31;;;;;;;2.30;1.10;;;29.80;56.90;;;;;;5008842;28;20524;-76
2022/07/05 12:18:03;;;;;;;3.83;1.50;;;29.10;57.70;;;;;;5009146;28;21112;-76
2022/07/05 12:20:29;;;;;;;2.03;1.00;;;28.40;58.70;;;;;;4991467;28;21068;-76
2022/07/05 12:22:55;;;;;;;1.30;1.00;;;28.20;59.90;;;;;;5002315;28;20456;-76
2022/07/05 12:25:23;;;;;;;3.20;1.13;;;28.60;61.20;;;;;;4987582;28;20444;-76
2022/07/05 12:27:51;;;;;;;5.50;1.33;;;29.00;59.40;;;;;;5011033;28;20189;-76
2022/07/05 12:30:18;;;;;;;3.53;1.17;;;29.50;58.00;;;;;;5008861;28;20416;-76
2022/07/05 12:33:00;;;;;;;1.43;1.00;;;29.80;58.30;;;;;;4991748;28;20436;-76
2022/07/05 12:35:36;;;;;;;3.37;1.00;;;30.20;54.70;;;;;;5009580;28;20467;-76
2022/07/05 12:38:10;;;;;;;1.30;0.83;;;30.50;56.40;;;;;;4997429;28;20423;-75
2022/07/05 12:40:38;;;;;;;2.20;1.13;;;30.20;56.10;;;;;;5012672;28;20507;-75
2022/07/05 12:43:15;;;;;;;3.10;1.00;;;30.00;56.80;;;;;;5013739;28;20753;-75
2022/07/05 12:45:43;;;;;;;1.97;1.20;;;30.10;56.00;;;;;;5013621;28;20444;-75
2022/07/05 12:48:10;;;;;;;3.10;1.30;;;29.90;54.10;;;;;;5012291;28;20447;-75
2022/07/05 12:50:52;;;;;;;2.60;1.10;;;29.90;57.70;;;;;;5012017;28;20425;-75
2022/07/05 12:58:53;;;;;;;1.00;0.80;;;29.60;53.20;;;;;;5003871;28;20760;-75
2022/07/05 13:01:25;;;;;;;3.67;1.60;;;29.70;55.00;;;;;;4998675;28;20522;-75
2022/07/05 13:04:10;;;;;;;1.00;0.90;;;29.80;57.50;;;;;;5014922;28;20416;-74